Time;durP1;ratioP1;P1;durP2;ratioP2;P2;SDS_P1;SDS_P2;PMS_P1;PMS_P2;Temp;Humidity;BMP_temperature;BMP_pressure;BME280_temperature;BME280_humidity;BME280_pressure;Samples;Min_cycle;Max_cycle;Signal;HPM_P1;HPM_P2
2022/09/12 00:00:50;;;;;;;14.03;12.63;;;;;;;;;;5116384;28;20267;-75
2022/09/12 00:03:16;;;;;;;15.50;13.93;;;;;;;-142.65;95.57;50164.81;5116338;28;20173;-75
2022/09/12 00:05:44;;;;;;;17.07;14.23;;;;;;;;;;5116543;28;20189;-75
2022/09/12 00:08:10;;;;;;;23.07;15.13;;;;;;;;;;5116447;28;20209;-75
2022/09/12 00:10:38;;;;;;;16.70;14.67;;;;;;;;;;5115879;28;20193;-75
2022/09/12 00:13:05;;;;;;;15.23;13.57;;;;;;;-142.65;95.78;50172.78;5115810;28;20197;-76
2022/09/12 00:15:40;;;;;;;19.17;13.70;;;;;;;-142.65;95.98;50162.81;5116039;28;20266;-75
2022/09/12 00:18:11;;;;;;;16.90;15.13;;;;;;;-142.65;95.92;50170.78;5115724;28;20212;-76
2022/09/12 00:20:40;;;;;;;21.67;13.60;;;;;;;;;;5116319;28;20173;-75
2022/09/12 00:23:07;;;;;;;16.57;13.13;;;;;;;-142.65;96.09;50162.81;5115964;28;20188;-75
2022/09/12 00:25:33;;;;;;;15.20;13.70;;;;;;;-142.65;96.11;50174.75;5115589;28;20196;-75
2022/09/12 00:28:00;;;;;;;17.80;13.37;;;;;;;;;;5115746;28;20209;-75
2022/09/12 00:30:26;;;;;;;16.20;14.50;;;;;;;-142.65;96.24;50164.81;5115744;28;20185;-75
2022/09/12 00:32:53;;;;;;;18.53;15.17;;;;;;;-142.65;96.20;50162.81;5115474;28;20204;-75
2022/09/12 00:35:20;;;;;;;16.13;14.57;;;;;;;-142.65;96.27;50160.81;5097566;28;20201;-75
2022/09/12 00:37:46;;;;;;;19.03;13.30;;;;;;;-142.65;96.44;50168.78;5115465;28;20223;-75
2022/09/12 00:40:12;;;;;;;13.93;12.63;;;;;;;;;;5115556;28;20192;-76
2022/09/12 00:42:38;;;;;;;17.87;13.20;;;;;;;-142.65;96.57;50164.81;5115796;28;20166;-76
2022/09/12 00:45:05;;;;;;;15.07;13.57;;;;;;;-142.65;96.34;50174.75;5115490;28;20655;-76
2022/09/12 00:47:34;;;;;;;15.57;12.77;;;;;;;;;;5115339;28;20204;-75
2022/09/12 00:50:04;;;;;;;14.87;13.33;;;;;;;;;;5115124;28;20193;-75
2022/09/12 00:52:40;;;;;;;14.83;13.23;;;;;;;-142.65;96.39;50168.78;5115664;28;20169;-76
2022/09/12 00:55:09;;;;;;;16.33;13.73;;;;;;;-142.65;96.27;50168.78;5115556;28;20185;-76
2022/09/12 00:57:48;;;;;;;16.17;13.80;;;;;;;-142.65;96.28;50170.78;5114859;28;20201;-76
2022/09/12 01:00:18;;;;;;;18.73;13.83;;;;;;;-142.65;96.26;50162.81;5115250;28;20170;-76
2022/09/12 01:02:50;;;;;;;14.10;12.47;;;;;;;-142.65;95.96;50170.78;5115463;28;20166;-76
2022/09/12 01:05:16;;;;;;;14.40;12.87;;;;;;;;;;5115169;28;20188;-76
2022/09/12 01:07:47;;;;;;;14.37;12.87;;;;;;;-142.65;95.81;50164.81;5114753;28;20205;-76
2022/09/12 01:10:13;;;;;;;13.07;11.80;;;;;;;-142.65;96.00;50164.81;5115028;28;20170;-76
2022/09/12 01:12:41;;;;;;;14.03;12.47;;;;;;;;;;5114506;28;20200;-76
2022/09/12 01:15:07;;;;;;;13.83;12.50;;;;;;;-142.65;96.00;50164.81;5114588;28;20201;-76
2022/09/12 01:18:11;;;;;;;15.00;13.47;;;;;;;-142.65;95.99;50164.81;5114510;28;20208;-76
2022/09/12 01:20:53;;;;;;;12.60;11.50;;;;;;;-142.65;96.11;50172.78;5114506;28;20196;-76
2022/09/12 01:23:47;;;;;;;14.67;13.17;;;;;;;;;;5115049;28;20177;-76
2022/09/12 01:26:48;;;;;;;13.40;12.27;;;;;;;-142.65;95.95;50164.81;5114755;28;20169;-76
2022/09/12 01:29:57;;;;;;;12.30;11.33;;;;;;;-142.65;95.94;50164.81;5075542;28;20601;-76
2022/09/12 01:32:37;;;;;;;12.10;11.20;;;;;;;-142.65;95.84;50164.81;5114916;28;20170;-76
2022/09/12 01:35:03;;;;;;;10.07;9.47;;;;;;;;;;5114551;28;20584;-76
2022/09/12 01:37:50;;;;;;;12.87;11.63;;;;;;;-142.65;95.86;50164.81;5114151;28;20213;-76
2022/09/12 01:40:28;;;;;;;15.30;11.73;;;;;;;;;;5114766;28;20177;-76
2022/09/12 01:43:08;;;;;;;14.90;12.70;;;;;;;;;;5114079;28;20532;-77
2022/09/12 01:45:44;;;;;;;15.57;12.97;;;;;;;-142.65;95.91;50172.78;5114472;28;20634;-77
2022/09/12 01:48:18;;;;;;;14.40;12.70;;;;;;;;;;5114611;28;20263;-76
2022/09/12 01:50:55;;;;;;;17.80;13.27;;;;;;;-142.65;95.86;50162.81;5114354;28;20638;-76
2022/09/12 01:53:27;;;;;;;19.67;12.40;;;;;;;-142.65;95.87;50168.78;5114336;28;20177;-75
2022/09/12 01:56:01;;;;;;;13.70;12.33;;;;;;;-142.65;95.89;50178.75;5114239;28;20193;-75
2022/09/12 01:58:37;;;;;;;12.57;11.40;;;;;;;-142.65;95.76;50180.75;5113928;28;20201;-75
2022/09/12 02:01:09;;;;;;;18.30;12.80;;;;;;;-142.65;95.85;50170.78;5113967;28;20188;-75
2022/09/12 02:03:43;;;;;;;14.03;12.50;;;;;;;-142.65;95.84;50162.81;5114432;28;20181;-75
2022/09/12 02:06:36;;;;;;;12.23;11.17;;;;;;;;;;5114114;28;20612;-75
2022/09/12 02:09:06;;;;;;;14.10;12.63;;;;;;;;;;5109235;28;20229;-75
2022/09/12 02:11:34;;;;;;;16.67;13.83;;;;;;;;;;5113685;28;20192;-75
2022/09/12 02:14:08;;;;;;;13.63;12.33;;;;;;;-142.65;95.89;50172.78;5113758;28;20189;-77
2022/09/12 02:16:50;;;;;;;15.90;12.00;;;;;;;-142.65;95.94;50164.81;5113976;28;20200;-76
2022/09/12 02:19:23;;;;;;;19.03;13.33;;;;;;;-142.65;96.03;50164.81;5095650;28;20197;-75
2022/09/12 02:21:52;;;;;;;16.43;12.77;;;;;;;;;;5113705;28;20573;-75
2022/09/12 02:24:21;;;;;;;12.37;11.33;;;;;;;-142.65;96.04;50170.78;5113646;28;20554;-75
2022/09/12 02:26:56;;;;;;;15.40;12.10;;;;;;;-142.65;96.19;50168.78;5113615;28;20204;-75
2022/09/12 02:29:22;;;;;;;15.33;12.20;;;;;;;-142.65;96.21;50164.81;5113585;28;20577;-75
2022/09/12 02:32:03;;;;;;;19.73;13.77;;;;;;;-142.65;96.11;50172.78;5113581;28;20200;-75
2022/09/12 02:34:42;;;;;;;17.77;14.20;;;;;;;-142.65;96.23;50176.75;5114133;28;20169;-75
2022/09/12 02:37:24;;;;;;;21.57;13.47;;;;;;;-142.65;96.15;50168.78;5113706;28;20189;-75
2022/09/12 02:39:53;;;;;;;21.50;14.73;;;;;;;-142.65;96.36;50172.78;5114079;28;20184;-75
2022/09/12 02:42:21;;;;;;;28.70;16.07;;;;;;;;;;5113773;28;20223;-75
2022/09/12 02:44:48;;;;;;;19.40;15.13;;;;;;;;;;5113681;28;20188;-75
2022/09/12 02:47:24;;;;;;;19.57;14.40;;;;;;;-142.65;96.62;50176.75;5113299;28;20177;-75
2022/09/12 02:49:52;;;;;;;22.97;14.90;;;;;;;-142.65;96.72;50174.75;5114015;28;20188;-75
2022/09/12 02:52:19;;;;;;;16.10;14.43;;;;;;;-142.65;97.00;50168.78;5113359;28;20195;-75
2022/09/12 02:54:46;;;;;;;20.70;14.30;;;;;;;-142.65;97.04;50164.81;5115255;28;20185;-75
2022/09/12 02:57:17;;;;;;;25.87;15.87;;;;;;;-142.65;97.18;50162.81;5117168;28;20208;-75
2022/09/12 02:59:49;;;;;;;19.30;13.57;;;;;;;;;;5117880;28;20165;-75
2022/09/12 03:02:31;;;;;;;14.03;12.43;;;;;;;;;;5117251;28;20196;-75
2022/09/12 03:05:07;;;;;;;16.13;13.13;;;;;;;-142.65;97.32;50170.78;5117472;28;20173;-76
2022/09/12 03:07:59;;;;;;;16.50;13.40;;;;;;;-142.65;97.29;50162.81;5117379;28;20220;-76
2022/09/12 03:10:35;;;;;;;12.60;11.50;;;;;;;;;;5117053;28;20181;-76
2022/09/12 03:13:21;;;;;;;13.17;11.57;;;;;;;-142.65;97.26;50174.75;5116976;28;20203;-76
2022/09/12 03:16:10;;;;;;;13.23;11.57;;;;;;;-142.65;97.24;50172.78;5117182;28;20197;-76
2022/09/12 03:18:55;;;;;;;13.13;11.90;;;;;;;;;;5117439;28;20201;-76
2022/09/12 03:21:24;;;;;;;14.87;13.37;;;;;;;;;;5116860;28;20185;-76
2022/09/12 03:24:03;;;;;;;16.97;11.93;;;;;;;-142.65;97.34;50164.81;5117114;28;20547;-76
2022/09/12 03:26:54;;;;;;;15.10;12.57;;;;;;;-142.65;97.33;50164.81;5117087;28;20193;-76
2022/09/12 03:29:24;;;;;;;13.67;12.27;;;;;;;-142.65;97.29;50170.78;5116966;28;20280;-76
2022/09/12 03:31:52;;;;;;;12.60;11.60;;;;;;;-142.65;97.34;50170.78;5116896;28;20177;-76
2022/09/12 03:34:19;;;;;;;13.67;12.13;;;;;;;;;;5116641;28;20650;-76
2022/09/12 03:36:46;;;;;;;13.20;12.00;;;;;;;-142.65;97.28;50172.78;5116777;28;20212;-76
2022/09/12 03:39:12;;;;;;;16.97;12.27;;;;;;;-142.65;97.23;50168.78;5116515;28;20198;-75
2022/09/12 03:41:39;;;;;;;12.33;11.10;;;;;;;-142.65;97.28;50162.81;5116480;28;20192;-75
2022/09/12 03:44:06;;;;;;;13.00;11.87;;;;;;;-142.65;97.30;50170.78;5116424;28;20185;-76
2022/09/12 03:46:32;;;;;;;20.77;12.50;;;;;;;;;;5116394;28;20181;-76
2022/09/12 03:48:59;;;;;;;14.07;12.33;;;;;;;-142.65;97.27;50164.81;5116330;28;20212;-75
2022/09/12 03:51:25;;;;;;;16.83;12.87;;;;;;;-142.65;97.23;50168.78;5116316;28;20212;-75
2022/09/12 03:53:52;;;;;;;14.00;11.60;;;;;;;;;;5116213;28;20699;-75
2022/09/12 03:56:18;;;;;;;12.23;11.07;;;;;;;;;;5116117;28;20201;-76
2022/09/12 03:58:45;;;;;;;10.33;9.53;;;;;;;-142.65;97.07;50164.81;5116037;28;20216;-75
2022/09/12 04:01:14;;;;;;;10.43;9.63;;;;;;;-142.65;96.68;50164.81;5116088;28;20189;-75
2022/09/12 04:03:42;;;;;;;13.57;10.37;;;;;;;-142.65;96.75;50168.78;5116029;28;20272;-75
2022/09/12 04:06:11;;;;;;;12.77;11.37;;;;;;;-142.65;96.64;50170.78;5115934;28;20204;-76
2022/09/12 04:08:38;;;;;;;13.33;10.90;;;;;;;-142.65;96.70;50180.75;5116038;28;20219;-76
2022/09/12 04:11:07;;;;;;;11.37;10.33;;;;;;;-142.65;96.67;50164.81;5116170;28;20207;-76
2022/09/12 04:13:35;;;;;;;16.60;10.93;;;;;;;-142.65;96.67;50168.78;5115883;28;20185;-76
2022/09/12 04:16:03;;;;;;;12.50;11.40;;;;;;;-142.65;96.70;50168.78;5116072;28;20194;-76
2022/09/12 04:18:30;;;;;;;16.63;12.20;;;;;;;-142.65;96.59;50164.81;5115738;28;20209;-75
2022/09/12 04:20:57;;;;;;;12.67;11.53;;;;;;;;;;5115738;28;20196;-76
2022/09/12 04:23:23;;;;;;;14.93;12.40;;;;;;;;;;5115717;28;20200;-76
2022/09/12 04:25:57;;;;;;;13.43;10.60;;;;;;;-142.65;96.65;50168.78;5115634;28;20185;-75
2022/09/12 04:28:24;;;;;;;13.67;12.27;;;;;;;-142.65;96.64;50170.78;5115487;28;20208;-75
2022/09/12 04:30:51;;;;;;;19.97;11.27;;;;;;;-142.65;96.61;50174.75;5115496;28;20693;-75
2022/09/12 04:33:17;;;;;;;16.77;12.23;;;;;;;-142.65;96.78;50170.78;5097726;28;20182;-75
2022/09/12 04:35:44;;;;;;;18.03;12.53;;;;;;;-142.65;96.78;50168.78;5115725;28;20219;-75
2022/09/12 04:38:11;;;;;;;13.60;12.10;;;;;;;-142.65;96.86;50168.78;5115549;28;20197;-76
2022/09/12 04:40:37;;;;;;;13.50;12.17;;;;;;;-142.65;96.85;50168.78;5115925;28;20704;-76
2022/09/12 04:43:05;;;;;;;12.50;11.30;;;;;;;-142.65;96.91;50172.78;5115616;28;20522;-76
2022/09/12 04:45:35;;;;;;;15.27;12.43;;;;;;;-142.65;96.99;50170.78;5115665;28;20166;-76
2022/09/12 04:48:02;;;;;;;15.23;12.23;;;;;;;-142.65;97.07;50168.78;5115414;28;20695;-75
2022/09/12 04:50:28;;;;;;;12.57;11.37;;;;;;;-142.65;97.00;50170.78;5115428;28;20189;-75
2022/09/12 04:52:54;;;;;;;18.07;12.50;;;;;;;;;;5115359;28;20189;-75
2022/09/12 04:55:21;;;;;;;14.90;12.07;;;;;;;;;;5115100;28;20265;-75
2022/09/12 04:57:47;;;;;;;16.43;13.20;;;;;;;-142.65;97.28;50164.81;5096729;28;20213;-75
2022/09/12 05:00:14;;;;;;;13.17;11.83;;;;;;;-142.65;97.31;50162.81;5114875;28;20193;-75
2022/09/12 05:02:41;;;;;;;15.07;11.43;;;;;;;-142.65;97.38;50164.81;5115108;28;20652;-75
2022/09/12 05:05:08;;;;;;;16.33;12.83;;;;;;;-142.65;97.46;50174.75;5114813;28;20224;-75
2022/09/12 05:07:34;;;;;;;21.23;13.27;;;;;;;-142.65;97.50;50168.78;5115013;28;20211;-75
2022/09/12 05:10:02;;;;;;;13.47;12.17;;;;;;;-142.65;97.57;50170.78;5115280;28;20192;-75
2022/09/12 05:12:30;;;;;;;15.70;12.63;;;;;;;-142.65;97.64;50164.81;5114714;28;20558;-75
2022/09/12 05:14:56;;;;;;;14.17;12.67;;;;;;;-142.65;97.72;50118.97;5115237;28;20272;-75
2022/09/12 05:17:23;;;;;;;15.97;12.83;;;;;;;-142.65;97.77;50170.78;5114187;28;20221;-75
2022/09/12 05:19:49;;;;;;;20.23;13.37;;;;;;;-142.65;97.85;50172.78;5114804;28;20189;-75
2022/09/12 05:22:16;;;;;;;21.90;12.60;;;;;;;-142.65;98.01;50170.78;5114381;28;20208;-75
2022/09/12 05:24:43;;;;;;;16.97;13.73;;;;;;;-142.65;98.00;50164.81;5114422;28;20662;-76
2022/09/12 05:27:19;;;;;;;14.20;11.60;;;;;;;-142.65;98.10;50164.81;5114482;28;20257;-75
2022/09/12 05:29:45;;;;;;;16.57;13.30;;;;;;;;;;5114660;28;20187;-75
2022/09/12 05:32:11;;;;;;;19.57;13.17;;;;;;;-142.65;98.26;50168.78;5114284;28;20185;-75
2022/09/12 05:34:39;;;;;;;19.13;13.73;;;;;;;-142.65;98.32;50160.81;5114204;28;20181;-75
2022/09/12 05:37:05;;;;;;;13.30;11.17;;;;;;;-142.65;98.41;50174.75;5114360;28;20215;-75
2022/09/12 05:39:31;;;;;;;18.50;12.27;;;;;;;;;;5114383;28;20174;-75
2022/09/12 05:41:58;;;;;;;13.60;12.30;;;;;;;-142.65;98.43;50168.78;5114071;28;20655;-75
2022/09/12 05:44:24;;;;;;;13.43;12.20;;;;;;;-142.65;98.59;50164.81;5114103;28;20204;-75
2022/09/12 05:46:52;;;;;;;17.70;12.83;;;;;;;-142.65;98.67;50170.78;5113973;28;20186;-75
2022/09/12 05:49:20;;;;;;;23.00;13.83;;;;;;;-142.65;98.66;50162.81;5114540;28;20219;-75
2022/09/12 05:51:46;;;;;;;18.00;13.13;;;;;;;-142.65;98.68;50164.81;5113869;28;20181;-75
2022/09/12 05:54:14;;;;;;;16.73;13.27;;;;;;;;;;5113941;28;20185;-75
2022/09/12 05:56:42;;;;;;;17.83;12.70;;;;;;;-142.65;98.73;50164.81;5113762;28;20215;-75
2022/09/12 05:59:11;;;;;;;18.50;13.07;;;;;;;;;;5114317;28;20205;-75
2022/09/12 06:01:37;;;;;;;18.63;12.77;;;;;;;;;;5096108;28;20181;-75
2022/09/12 06:04:05;;;;;;;16.37;11.90;;;;;;;;;;5113886;28;20239;-75
2022/09/12 06:06:33;;;;;;;17.00;12.83;;;;;;;;;;5114109;28;20188;-75
2022/09/12 06:09:02;;;;;;;17.13;13.33;;;;;;;-142.65;99.27;50164.81;5113650;28;20205;-75
2022/09/12 06:11:29;;;;;;;24.50;13.93;;;;;;;;;;5113651;28;20201;-75
2022/09/12 06:13:57;;;;;;;17.20;13.63;;;;;;;-142.65;99.50;50170.78;5113838;28;20181;-75
2022/09/12 06:16:26;;;;;;;17.00;12.60;;;;;;;-142.65;99.52;50162.81;5113648;28;20201;-75
2022/09/12 06:18:58;;;;;;;16.57;13.60;;;;;;;-142.65;99.79;50162.81;5113611;28;20225;-75
2022/09/12 06:21:25;;;;;;;18.60;12.63;;;;;;;;;;5113914;28;20175;-75
2022/09/12 06:23:54;;;;;;;13.83;12.43;;;;;;;-142.65;99.82;50164.81;5114212;28;20189;-75
2022/09/12 06:26:24;;;;;;;17.97;12.33;;;;;;;-142.65;99.66;50164.81;5113591;28;20177;-75
2022/09/12 06:28:52;;;;;;;17.10;13.27;;;;;;;-142.65;99.54;50162.81;5115773;28;20686;-75
2022/09/12 06:31:20;;;;;;;20.20;12.67;;;;;;;;;;5117812;28;20185;-75
2022/09/12 06:33:49;;;;;;;13.87;12.53;;;;;;;-142.65;99.34;50162.81;5117840;28;20173;-75
2022/09/12 06:36:21;;;;;;;17.90;12.27;;;;;;;-142.65;99.33;50162.81;5117577;28;20189;-75
2022/09/12 06:38:53;;;;;;;22.60;14.07;;;;;;;-142.65;99.20;50170.78;5117662;28;20223;-76
2022/09/12 06:41:19;;;;;;;20.40;12.37;;;;;;;-142.65;99.09;50162.81;5117909;28;20174;-76
2022/09/12 06:43:46;;;;;;;14.43;12.57;;;;;;;-142.65;98.96;50178.75;5117878;28;20192;-76
2022/09/12 06:46:12;;;;;;;18.23;13.20;;;;;;;-142.65;98.92;50164.81;5117572;28;20181;-76
2022/09/12 06:48:38;;;;;;;27.40;13.27;;;;;;;-142.65;98.65;50164.81;5099175;28;20502;-76
2022/09/12 06:51:16;;;;;;;25.17;12.10;;;;;;;-142.65;98.53;50162.81;5117422;28;20619;-76
2022/09/12 06:53:44;;;;;;;21.03;11.80;;;;;;;-142.65;98.39;50162.81;5117664;28;20539;-76
2022/09/12 06:56:13;;;;;;;26.20;14.40;;;;;;;-142.65;98.30;50170.78;5117487;28;20181;-76
2022/09/12 06:58:40;;;;;;;14.87;12.07;;;;;;;;;;5117243;28;20212;-75
2022/09/12 07:01:08;;;;;;;19.23;13.03;;;;;;;;;;5117227;28;20690;-75
2022/09/12 07:03:35;;;;;;;17.37;11.90;;;;;;;;;;5117191;28;20651;-75
2022/09/12 07:06:09;;;;;;;12.20;10.87;;;;;;;;;;5117095;28;20192;-75
2022/09/12 07:08:36;;;;;;;11.50;10.40;;;;;;;-142.65;97.85;50162.81;5117145;28;20578;-75
2022/09/12 07:11:10;;;;;;;19.43;12.07;;;;;;;;;;5116891;28;20185;-75
2022/09/12 07:13:38;;;;;;;15.47;11.30;;;;;;;-142.65;97.43;50162.81;5117311;28;20659;-75
2022/09/12 07:16:05;;;;;;;13.23;12.00;;;;;;;;;;5117234;28;20204;-75
2022/09/12 07:18:34;;;;;;;12.87;11.67;;;;;;;;;;5116790;28;20217;-75
2022/09/12 07:21:01;;;;;;;13.77;12.43;;;;;;;;;;5116978;28;20189;-76
2022/09/12 07:23:28;;;;;;;14.17;12.60;;;;;;;-142.65;96.11;50162.81;5117180;28;20543;-76
2022/09/12 07:25:56;;;;;;;13.60;11.37;;;;;;;-142.65;95.86;50164.81;5117200;28;20527;-75
2022/09/12 07:28:24;;;;;;;12.43;11.33;;;;;;;-142.65;95.54;50164.81;5116686;28;20208;-75
2022/09/12 07:30:52;;;;;;;11.43;10.40;;;;;;;-142.65;95.28;50168.78;5117286;28;20544;-75
2022/09/12 07:33:20;;;;;;;14.10;10.63;;;;;;;-142.65;95.09;50168.78;5117001;28;20177;-75
2022/09/12 07:35:46;;;;;;;14.73;11.00;;;;;;;;;;5117207;28;20181;-75
2022/09/12 07:38:13;;;;;;;13.80;12.23;;;;;;;;;;5116596;28;20217;-75
2022/09/12 07:40:39;;;;;;;14.33;12.87;;;;;;;-142.65;94.57;50162.81;5116477;28;20651;-75
2022/09/12 07:43:06;;;;;;;13.63;12.17;;;;;;;-142.65;94.45;50162.81;5117098;28;20545;-75
2022/09/12 07:45:32;;;;;;;13.40;12.07;;;;;;;-142.65;94.25;50164.81;5116708;28;20181;-75
2022/09/12 07:47:59;;;;;;;12.40;11.27;;;;;;;-142.65;93.99;50164.81;5116376;28;20266;-75
2022/09/12 07:50:26;;;;;;;13.00;11.80;;;;;;;;;;5116186;28;20531;-71
2022/09/12 07:52:53;;;;;;;10.90;9.80;;;;;;;-142.65;93.64;50162.81;5107981;28;20192;-76
2022/09/12 07:55:21;;;;;;;12.10;11.10;;;;;;;-142.65;93.53;50162.81;5107907;28;20203;-75
2022/09/12 07:57:50;;;;;;;13.80;11.57;;;;;;;-142.65;93.21;50160.81;5105157;28;20219;-74
2022/09/12 08:00:17;;;;;;;14.40;12.93;;;;;;;-142.65;92.97;50168.78;5116171;28;20181;-75
2022/09/12 08:02:44;;;;;;;14.47;11.40;;;;;;;-142.65;92.71;50168.78;5116089;28;20181;-75
2022/09/12 08:05:10;;;;;;;13.67;10.87;;;;;;;-142.65;92.48;50118.97;5115978;28;20189;-75
2022/09/12 08:07:37;;;;;;;14.43;11.67;;;;;;;-142.65;92.80;50168.78;5115895;28;20205;-75
2022/09/12 08:10:05;;;;;;;12.90;11.73;;;;;;;-142.65;92.54;50118.97;5115942;28;20213;-75
2022/09/12 08:12:33;;;;;;;11.70;10.90;;;;;;;-142.65;92.40;50162.81;5115756;28;20197;-75
2022/09/12 08:14:59;;;;;;;12.87;11.57;;;;;;;-142.65;92.01;50164.81;5116101;28;20188;-75
2022/09/12 08:17:26;;;;;;;12.90;11.60;;;;;;;-142.65;91.87;50162.81;5115658;28;20213;-75
2022/09/12 08:19:52;;;;;;;14.23;11.43;;;;;;;-142.65;91.51;50164.81;5097937;28;20177;-76
2022/09/12 08:22:20;;;;;;;13.13;11.73;;;;;;;-142.65;91.12;50160.81;5115667;28;20197;-76
2022/09/12 08:24:47;;;;;;;11.97;10.77;;;;;;;-142.65;90.96;50164.81;5097444;28;20208;-75
2022/09/12 08:27:14;;;;;;;17.30;10.57;;;;;;;;;;5115834;28;20192;-74
2022/09/12 08:29:40;;;;;;;13.30;11.30;;;;;;;-142.65;90.79;50162.81;5115865;28;20188;-76
2022/09/12 08:32:07;;;;;;;19.50;11.73;;;;;;;-142.65;90.68;50101.06;5115526;28;20190;-76
2022/09/12 08:34:33;;;;;;;11.80;10.77;;;;;;;-142.65;90.37;50164.81;5115360;28;20189;-76
2022/09/12 08:37:00;;;;;;;10.73;10.03;;;;;;;-142.65;89.92;50162.81;5115327;28;20205;-74
2022/09/12 08:39:26;;;;;;;12.17;11.03;;;;;;;-142.65;89.75;50162.81;5115655;28;20647;-76
2022/09/12 08:41:57;;;;;;;15.37;13.47;;;;;;;-142.65;89.43;50101.06;5115870;28;20652;-75
2022/09/12 08:44:38;;;;;;;12.50;11.37;;;;;;;-142.65;89.21;50164.81;5115607;28;20165;-75
2022/09/12 08:47:35;;;;;;;15.80;13.20;;;;;;;-142.65;88.89;50162.81;5115180;28;20173;-74
2022/09/12 08:50:07;;;;;;;17.67;15.50;;;;;;;;;;5115486;28;20178;-75
2022/09/12 08:52:33;;;;;;;19.27;14.73;;;;;;;-142.65;88.12;50101.06;5114031;28;20181;-75
2022/09/12 08:55:02;;;;;;;14.63;13.20;;;;;;;-142.65;87.77;50162.81;5114968;28;20194;-75
2022/09/12 08:57:28;;;;;;;11.77;10.97;;;;;;;-142.65;86.98;50101.06;5114846;28;20577;-74
2022/09/12 08:59:55;;;;;;;15.27;12.53;;;;;;;-142.65;85.36;50160.81;5114965;28;20192;-74
2022/09/12 09:02:27;;;;;;;11.13;9.37;;;;;;;;;;5115105;28;20189;-75
2022/09/12 09:05:22;;;;;;;13.47;12.20;;;;;;;-142.65;84.74;50162.81;5115452;28;20212;-76
2022/09/12 09:08:12;;;;;;;11.80;10.97;;;;;;;-142.65;83.98;50162.81;5105469;28;20229;-74
2022/09/12 09:11:04;;;;;;;15.27;10.57;;;;;;;-142.65;82.29;50164.81;5114783;28;20177;-75
2022/09/12 09:16:35;;;;;;;10.80;9.83;;;;;;;-142.65;82.41;50164.81;5114639;28;20185;-75
2022/09/12 09:19:03;;;;;;;10.93;9.93;;;;;;;;;;5114479;28;20217;-75
2022/09/12 09:22:14;;;;;;;10.50;9.63;;;;;;;-142.65;80.65;50162.81;5114461;28;20193;-75
2022/09/12 09:24:43;;;;;;;10.87;10.03;;;;;;;;;;5051796;28;20201;-75
2022/09/12 09:27:30;;;;;;;9.13;8.60;;;;;;;-142.65;79.85;50162.81;5051737;28;20658;-75
2022/09/12 09:30:16;;;;;;;8.33;7.83;;;;;;;-142.65;79.78;50162.81;5098087;28;20739;-75
2022/09/12 09:32:47;;;;;;;10.83;7.70;;;;;;;-142.65;80.28;50162.81;5114646;28;20642;-75
2022/09/12 09:35:21;;;;;;;12.60;9.17;;;;;;;-142.65;76.80;50160.81;5114646;28;20172;-75
2022/09/12 09:37:59;;;;;;;7.33;6.97;;;;;;;;;;5114707;28;20217;-75
2022/09/12 09:40:36;;;;;;;7.73;7.37;;;;;;;-142.65;77.08;50162.81;5114862;28;20253;-75
2022/09/12 09:43:29;;;;;;;8.37;8.07;;;;;;;-142.65;77.31;50164.81;5114475;28;20174;-75
2022/09/12 09:45:58;;;;;;;7.73;7.43;;;;;;;-142.65;76.56;50101.06;5112435;28;20210;-75
2022/09/12 09:48:35;;;;;;;8.30;7.87;;;;;;;-142.65;76.45;50160.81;5114047;28;20258;-75
2022/09/12 09:51:06;;;;;;;9.70;8.77;;;;;;;-142.65;77.30;50164.81;5114044;28;20184;-75
2022/09/12 09:53:45;;;;;;;10.10;8.93;;;;;;;-142.65;77.46;50164.81;5114077;28;20261;-75
2022/09/12 09:56:21;;;;;;;8.73;8.23;;;;;;;;;;5114256;28;20173;-75
2022/09/12 09:58:48;;;;;;;8.37;8.07;;;;;;;-142.65;75.96;50162.81;5114093;28;20218;-75
2022/09/12 10:01:16;;;;;;;8.70;8.03;;;;;;;-142.65;74.45;50164.81;5108370;28;20201;-75
2022/09/12 10:03:49;;;;;;;8.87;8.53;;;;;;;-142.65;75.19;50162.81;5088005;28;20280;-75
2022/09/12 10:06:19;;;;;;;8.37;8.07;;;;;;;-142.65;75.20;50160.81;5107953;28;20678;-74
2022/09/12 10:08:47;;;;;;;7.97;7.70;;;;;;;-142.65;75.65;50164.81;5113974;28;20786;-76
2022/09/12 10:11:18;;;;;;;7.80;7.43;;;;;;;;;;5112821;28;20197;-74
2022/09/12 10:13:56;;;;;;;5.60;5.47;;;;;;;-142.65;72.96;50101.06;5112525;28;20189;-75
2022/09/12 10:16:46;;;;;;;6.97;6.50;;;;;;;-142.65;71.97;50164.81;5113223;28;20193;-75
2022/09/12 10:19:20;;;;;;;6.67;6.53;;;;;;;;;;5112067;28;20213;-75
2022/09/12 10:21:55;;;;;;;6.47;6.33;;;;;;;-142.65;71.47;50101.06;5111786;28;20189;-75
2022/09/12 10:24:21;;;;;;;13.63;7.00;;;;;;;-142.65;71.11;50164.81;5109721;28;20666;-74
2022/09/12 10:27:06;;;;;;;5.30;5.20;;;;;;;-142.65;71.31;50160.81;5111696;28;20193;-75
2022/09/12 10:29:42;;;;;;;5.63;5.53;;;;;;;-142.65;69.82;50164.81;5109326;28;20184;-75
2022/09/12 10:32:11;;;;;;;5.27;5.07;;;;;;;-142.65;67.62;50170.78;5100762;28;20189;-75
2022/09/12 10:34:42;;;;;;;4.37;4.37;;;;;;;-142.65;67.32;50162.81;5104084;28;20547;-75
2022/09/12 10:37:18;;;;;;;4.40;4.23;;;;;;;-142.65;64.82;50162.81;5110155;28;20189;-75
2022/09/12 10:39:56;;;;;;;4.37;4.27;;;;;;;-142.65;64.16;50162.81;5113832;28;20177;-76
2022/09/12 10:42:48;;;;;;;4.67;4.57;;;;;;;-142.65;64.63;50162.81;5112991;28;20681;-75
2022/09/12 10:45:19;;;;;;;4.63;4.53;;;;;;;-142.65;64.54;50162.81;5108902;28;20202;-75
2022/09/12 10:47:46;;;;;;;4.40;4.30;;;;;;;-142.65;64.24;50162.81;5112536;28;20213;-75
2022/09/12 10:50:45;;;;;;;4.10;4.00;;;;;;;-142.65;63.96;50162.81;5112568;28;20197;-75
2022/09/12 10:53:26;;;;;;;4.53;4.43;;;;;;;-142.65;63.30;50162.81;5107427;28;20201;-75
2022/09/12 10:56:21;;;;;;;4.33;4.27;;;;;;;-142.65;61.85;50164.81;5101318;28;20189;-75
2022/09/12 10:59:02;;;;;;;4.03;4.03;;;;;;;-142.65;62.75;50162.81;5108143;28;20212;-75
2022/09/12 11:01:32;;;;;;;4.33;4.33;;;;;;;-142.65;62.87;50160.81;5113572;28;20615;-76
2022/09/12 11:04:17;;;;;;;4.13;3.90;;;;;;;-142.65;62.15;50162.81;5108179;28;20197;-75
2022/09/12 11:06:44;;;;;;;5.60;4.67;;;;;;;;;;5110076;28;20190;-75
2022/09/12 11:09:26;;;;;;;4.40;4.40;;;;;;;-142.65;62.13;50162.81;5110245;28;20208;-74
2022/09/12 11:12:29;;;;;;;4.17;4.17;;;;;;;-142.65;62.21;50162.81;5098576;28;20193;-75
2022/09/12 11:15:31;;;;;;;3.67;3.67;;;;;;;-142.65;59.51;50162.81;5060538;28;20205;-75
2022/09/12 11:18:08;;;;;;;3.30;3.30;;;;;;;-142.65;60.59;50158.81;5096746;28;20209;-74
2022/09/12 11:20:57;;;;;;;2.87;2.77;;;;;;;-142.65;61.30;50162.81;5096543;28;20651;-75
2022/09/12 11:23:29;;;;;;;3.70;3.63;;;;;;;-142.65;60.50;50162.81;5096831;28;20180;-75
2022/09/12 11:26:01;;;;;;;3.63;3.63;;;;;;;-142.65;58.35;50164.81;5096753;28;20162;-75
2022/09/12 11:28:53;;;;;;;3.37;3.37;;;;;;;-142.65;57.92;50164.81;5096681;28;20641;-75
2022/09/12 11:31:45;;;;;;;2.93;2.93;;;;;;;-142.65;57.27;50162.81;5096286;28;20197;-75
2022/09/12 11:34:16;;;;;;;7.72;3.70;;;;;;;-142.65;55.83;50101.06;5096277;28;20182;-75
2022/09/12 11:37:21;;;;;;;4.07;3.97;;;;;;;-142.65;56.05;50164.81;5096848;28;20178;-75
2022/09/12 11:39:51;;;;;;;6.90;3.38;;;;;;;;;;5096159;28;20162;-75
2022/09/12 11:42:38;;;;;;;3.23;3.13;;;;;;;-142.65;58.52;50164.81;5096058;28;20178;-76
2022/09/12 11:45:43;;;;;;;3.58;3.58;;;;;;;-142.65;55.92;50162.81;5096093;28;20178;-75
2022/09/12 11:48:31;;;;;;;3.47;3.30;;;;;;;-142.65;57.04;50162.81;5047424;28;20217;-75
2022/09/12 11:51:01;;;;;;;3.17;3.17;;;;;;;-142.65;56.82;50162.81;5104014;28;20208;-74
2022/09/12 11:53:34;;;;;;;3.30;3.30;;;;;;;-142.65;56.29;50162.81;5116389;28;20187;-75
2022/09/12 11:56:11;;;;;;;3.17;3.15;;;;;;;;;;5116582;28;20589;-75
2022/09/12 11:58:41;;;;;;;3.58;3.47;;;;;;;-142.65;56.58;50164.81;5113508;28;20212;-75
2022/09/12 12:01:12;;;;;;;3.72;3.63;;;;;;;-142.65;55.74;50164.81;5112196;28;20205;-74
2022/09/12 12:03:42;;;;;;;3.75;3.60;;;;;;;-142.65;55.71;50162.81;5107188;28;20177;-75
2022/09/12 12:06:11;;;;;;;4.10;3.80;;;;;;;;;;5104308;28;20532;-75
2022/09/12 12:08:40;;;;;;;4.30;4.30;;;;;;;-142.65;57.37;50164.81;5106636;28;20213;-75
2022/09/12 12:11:09;;;;;;;3.90;3.70;;;;;;;-142.65;56.12;50162.81;5110729;28;20211;-75